createdAt,value
2018-07-21T00:02:08.977Z,24.75
2018-07-21T00:04:37.058Z,24.72
2018-07-21T00:07:05.148Z,24.74
2018-07-21T00:09:33.154Z,24.70
2018-07-21T00:12:01.120Z,24.62
2018-07-21T00:14:29.227Z,24.67
2018-07-21T00:16:57.245Z,24.64
2018-07-21T00:19:25.532Z,24.64
2018-07-21T00:21:53.515Z,24.57
2018-07-21T00:24:21.455Z,24.57
2018-07-21T00:26:49.781Z,24.55
2018-07-21T00:29:19.333Z,24.55
2018-07-21T00:31:47.386Z,24.51
2018-07-21T00:34:15.353Z,24.42
2018-07-21T00:36:43.436Z,24.38
2018-07-21T00:39:14.201Z,24.33
2018-07-21T00:41:42.324Z,24.34
2018-07-21T00:44:10.413Z,24.32
2018-07-21T00:46:38.429Z,24.30
2018-07-21T00:49:06.843Z,24.32
2018-07-21T00:51:35.082Z,24.28
2018-07-21T00:54:03.013Z,24.28
2018-07-21T00:56:31.642Z,24.25
2018-07-21T00:58:59.536Z,24.22
2018-07-21T01:01:27.461Z,24.18
2018-07-21T01:03:55.585Z,24.12
2018-07-21T01:06:23.619Z,24.15
2018-07-21T01:08:51.639Z,24.14
2018-07-21T01:11:19.636Z,24.08
2018-07-21T01:13:47.751Z,24.10
2018-07-21T01:16:15.824Z,24.07
2018-07-21T01:18:43.973Z,24.10
2018-07-21T01:21:12.343Z,24.14
2018-07-21T01:23:40.438Z,24.15
2018-07-21T01:26:08.425Z,24.18
2018-07-21T01:28:36.465Z,24.14
2018-07-21T01:31:04.429Z,24.15
2018-07-21T01:33:32.453Z,24.16
2018-07-21T01:36:00.345Z,24.16
2018-07-21T01:38:28.326Z,24.12
2018-07-21T01:40:56.356Z,24.14
2018-07-21T01:43:24.409Z,24.13
2018-07-21T01:45:52.490Z,24.15
2018-07-21T01:48:20.499Z,24.07
2018-07-21T01:50:48.532Z,24.04
2018-07-21T01:53:16.751Z,24.08
2018-07-21T01:55:44.729Z,24.04
2018-07-21T01:58:12.707Z,24.05
2018-07-21T02:00:40.840Z,24.07
2018-07-21T02:03:08.788Z,24.11
2018-07-21T02:05:36.802Z,24.05
2018-07-21T02:08:04.987Z,24.08
2018-07-21T02:10:32.941Z,24.02
2018-07-21T02:13:01.032Z,24.01
2018-07-21T02:15:29.014Z,23.97
2018-07-21T02:17:57.066Z,23.92
2018-07-21T02:20:25.112Z,23.85
2018-07-21T02:22:53.137Z,23.82
2018-07-21T02:25:21.150Z,23.76
2018-07-21T02:27:49.176Z,23.74
2018-07-21T02:30:17.236Z,23.72
2018-07-21T02:32:45.399Z,23.60
2018-07-21T02:35:13.349Z,23.59
2018-07-21T02:37:41.353Z,23.53
2018-07-21T02:40:09.414Z,23.38
2018-07-21T02:42:37.353Z,23.34
2018-07-21T02:45:05.330Z,23.33
2018-07-21T02:47:33.530Z,23.28
2018-07-21T02:50:01.553Z,23.32
2018-07-21T02:52:29.468Z,23.45
2018-07-21T02:54:57.427Z,23.52
2018-07-21T02:57:25.453Z,23.58
2018-07-21T02:59:53.472Z,23.60
2018-07-21T03:02:21.461Z,23.71
2018-07-21T03:04:49.494Z,23.92
2018-07-21T03:07:17.580Z,23.91
2018-07-21T03:09:45.758Z,23.81
2018-07-21T03:12:13.750Z,23.93
2018-07-21T03:14:41.831Z,23.95
2018-07-21T03:17:09.881Z,24.01
2018-07-21T03:19:37.929Z,23.94
2018-07-21T03:22:05.944Z,24.03
2018-07-21T03:24:33.896Z,24.08
2018-07-21T03:27:01.985Z,24.06
2018-07-21T03:29:30.036Z,24.06
2018-07-21T03:31:58.097Z,24.03
2018-07-21T03:34:26.059Z,23.88
2018-07-21T03:36:54.160Z,23.95
2018-07-21T03:39:22.133Z,23.92
2018-07-21T03:41:50.736Z,23.92
2018-07-21T03:44:18.756Z,23.96
2018-07-21T03:46:46.870Z,23.99
2018-07-21T03:49:15.070Z,24.00
2018-07-21T03:51:43.058Z,24.08
2018-07-21T03:54:11.037Z,24.15
2018-07-21T03:56:39.112Z,24.25
2018-07-21T03:59:07.030Z,24.21
2018-07-21T04:01:35.015Z,24.30
2018-07-21T04:04:03.015Z,24.33
2018-07-21T04:06:31.324Z,24.37
2018-07-21T04:08:59.420Z,24.43
2018-07-21T04:11:27.568Z,24.44
2018-07-21T04:13:55.639Z,24.46
2018-07-21T04:16:23.761Z,24.45
2018-07-21T04:18:51.706Z,24.49
2018-07-21T04:21:19.817Z,24.47
2018-07-21T04:23:48.067Z,24.54
2018-07-21T04:26:16.040Z,24.49
2018-07-21T04:28:44.131Z,24.59
2018-07-21T04:31:12.184Z,24.52
2018-07-21T04:33:40.152Z,24.52
2018-07-21T04:36:08.119Z,24.60
2018-07-21T04:38:36.184Z,24.60
2018-07-21T04:41:04.297Z,24.56
2018-07-21T04:43:32.274Z,24.55
2018-07-21T04:46:00.321Z,24.50
2018-07-21T04:48:29.785Z,24.55
2018-07-21T04:50:58.032Z,24.56
2018-07-21T04:53:26.063Z,24.63
2018-07-21T04:55:54.109Z,24.59
2018-07-21T04:58:22.145Z,24.56
2018-07-21T05:00:50.206Z,24.70
2018-07-21T05:03:18.182Z,24.75
2018-07-21T05:05:46.241Z,24.91
2018-07-21T05:08:14.186Z,24.94
2018-07-21T05:10:42.182Z,25.13
2018-07-21T05:13:10.264Z,25.12
2018-07-21T05:15:38.184Z,25.08
2018-07-21T05:18:05.915Z,25.08
2018-07-21T05:20:33.975Z,25.14
2018-07-21T05:23:02.222Z,25.04
2018-07-21T05:25:30.250Z,25.10
2018-07-21T05:27:58.275Z,25.06
2018-07-21T05:30:26.280Z,24.97
2018-07-21T05:32:54.277Z,24.96
2018-07-21T05:35:22.456Z,24.99
2018-07-21T05:37:51.661Z,24.95
2018-07-21T05:40:19.847Z,25.00
2018-07-21T05:42:48.046Z,25.04
2018-07-21T05:45:16.035Z,25.03
2018-07-21T05:47:44.192Z,25.05
2018-07-21T05:50:12.324Z,25.10
2018-07-21T05:52:42.802Z,25.01
2018-07-21T05:55:10.818Z,25.06
2018-07-21T05:57:38.849Z,25.10
2018-07-21T06:00:10.129Z,25.23
2018-07-21T06:02:38.245Z,25.19
2018-07-21T06:05:06.426Z,25.19
2018-07-21T06:07:34.560Z,25.21
2018-07-21T06:10:02.595Z,25.32
2018-07-21T06:12:30.536Z,25.32
2018-07-21T06:14:58.531Z,25.31
2018-07-21T06:17:26.546Z,25.35
2018-07-21T06:19:54.695Z,25.28
2018-07-21T06:22:22.735Z,25.23
2018-07-21T06:24:50.691Z,25.19
2018-07-21T06:27:18.643Z,25.22
2018-07-21T06:29:46.689Z,25.19
2018-07-21T06:32:14.814Z,25.26
2018-07-21T06:34:42.904Z,25.25
2018-07-21T06:37:10.885Z,25.24
2018-07-21T06:39:38.919Z,25.24
2018-07-21T06:42:06.977Z,25.25
2018-07-21T06:44:34.953Z,25.36
2018-07-21T06:47:06.759Z,25.39
2018-07-21T06:49:34.780Z,25.49
2018-07-21T06:52:02.907Z,25.52
2018-07-21T06:54:30.876Z,25.65
2018-07-21T06:57:03.494Z,25.67
2018-07-21T06:59:31.550Z,25.79
2018-07-21T07:01:59.594Z,25.87
2018-07-21T07:04:27.658Z,25.98
2018-07-21T07:06:56.684Z,25.94
2018-07-21T07:09:24.934Z,25.96
2018-07-21T07:11:53.007Z,26.08
2018-07-21T07:14:21.921Z,26.02
2018-07-21T07:16:49.889Z,26.10
2018-07-21T07:19:17.919Z,26.06
2018-07-21T07:21:45.996Z,26.20
2018-07-21T07:24:13.956Z,26.21
2018-07-21T07:26:42.061Z,26.22
2018-07-21T07:29:10.448Z,26.29
2018-07-21T07:31:38.522Z,26.26
2018-07-21T07:34:06.662Z,26.28
2018-07-21T07:36:34.901Z,26.40
2018-07-21T07:39:03.244Z,26.47
2018-07-21T07:41:31.195Z,26.45
2018-07-21T07:43:59.150Z,26.59
2018-07-21T07:46:27.142Z,26.61
2018-07-21T07:48:55.104Z,26.83
2018-07-21T07:51:23.192Z,26.85
2018-07-21T07:53:51.673Z,26.77
2018-07-21T07:56:22.872Z,26.89
2018-07-21T07:58:50.798Z,26.88
2018-07-21T08:01:19.169Z,26.87
2018-07-21T08:03:47.164Z,26.98
2018-07-21T08:06:15.277Z,27.06
2018-07-21T08:08:44.304Z,27.02
2018-07-21T08:11:12.305Z,27.16
2018-07-21T08:13:40.345Z,27.26
2018-07-21T08:16:08.279Z,27.51
2018-07-21T08:18:36.517Z,27.56
2018-07-21T08:21:04.520Z,27.69
2018-07-21T08:23:32.602Z,27.86
2018-07-21T08:26:00.646Z,27.94
2018-07-21T08:28:28.762Z,27.92
2018-07-21T08:30:57.011Z,27.92
2018-07-21T08:33:24.986Z,27.80
2018-07-21T08:35:53.025Z,27.56
2018-07-21T08:38:21.305Z,27.56
2018-07-21T08:40:49.369Z,27.45
2018-07-21T08:43:17.406Z,27.52
2018-07-21T08:45:45.417Z,27.47
2018-07-21T08:48:13.561Z,27.46
2018-07-21T08:50:41.653Z,27.51
2018-07-21T08:53:09.719Z,27.61
2018-07-21T08:55:37.949Z,27.45
2018-07-21T08:58:06.032Z,27.49
2018-07-21T09:00:34.074Z,27.55
2018-07-21T09:03:02.131Z,27.56
2018-07-21T09:05:30.296Z,27.52
2018-07-21T09:07:58.401Z,27.52
2018-07-21T09:10:26.459Z,27.51
2018-07-21T09:12:54.634Z,27.67
2018-07-21T09:15:22.763Z,27.67
2018-07-21T09:17:51.010Z,27.80
2018-07-21T09:20:19.102Z,28.00
2018-07-21T09:22:47.161Z,27.93
2018-07-21T09:25:15.315Z,28.07
2018-07-21T09:27:43.360Z,28.11
2018-07-21T09:30:11.354Z,28.19
2018-07-21T09:32:39.344Z,28.15
2018-07-21T09:35:07.403Z,28.22
2018-07-21T09:37:35.420Z,28.21
2018-07-21T09:40:03.740Z,28.22
2018-07-21T09:42:31.774Z,28.22
2018-07-21T09:44:59.823Z,28.11
2018-07-21T09:47:27.783Z,28.17
2018-07-21T09:49:56.486Z,28.25
2018-07-21T09:52:24.518Z,28.27
2018-07-21T09:54:52.623Z,28.32
2018-07-21T09:57:20.624Z,28.48
2018-07-21T09:59:48.698Z,28.50
2018-07-21T10:02:17.480Z,28.55
2018-07-21T10:04:45.778Z,28.48
2018-07-21T10:07:14.838Z,28.43
2018-07-21T10:09:44.245Z,28.42
2018-07-21T10:12:13.474Z,28.54
2018-07-21T10:14:41.781Z,28.64
2018-07-21T10:17:10.433Z,28.81
2018-07-21T10:19:39.265Z,28.93
2018-07-21T10:22:10.085Z,28.83
2018-07-21T10:24:43.777Z,28.88
2018-07-21T10:27:14.383Z,29.01
2018-07-21T10:29:42.523Z,28.96
2018-07-21T10:32:10.959Z,29.06
2018-07-21T10:34:39.994Z,29.03
2018-07-21T10:37:08.482Z,29.00
2018-07-21T10:39:37.186Z,29.10
2018-07-21T10:42:05.520Z,29.18
2018-07-21T10:44:33.660Z,29.11
2018-07-21T10:47:01.709Z,29.05
2018-07-21T10:49:30.238Z,29.12
2018-07-21T10:51:59.025Z,29.23
2018-07-21T10:54:27.534Z,29.29
2018-07-21T10:56:56.494Z,29.19
2018-07-21T10:59:24.533Z,29.22
2018-07-21T11:01:53.014Z,29.21
2018-07-21T11:04:21.103Z,29.34
2018-07-21T11:06:49.993Z,29.39
2018-07-21T11:09:19.195Z,29.51
2018-07-21T11:11:47.212Z,29.49
2018-07-21T11:14:15.312Z,29.45
2018-07-21T11:16:45.705Z,29.53
2018-07-21T11:19:14.791Z,29.56
2018-07-21T11:21:42.797Z,29.47
2018-07-21T11:24:10.889Z,29.51
2018-07-21T11:26:40.225Z,29.63
2018-07-21T11:29:08.412Z,29.59
2018-07-21T11:31:39.330Z,29.59
2018-07-21T11:34:07.430Z,29.60
2018-07-21T11:36:35.546Z,29.74
2018-07-21T11:39:04.333Z,29.85
2018-07-21T11:41:32.956Z,29.86
2018-07-21T11:44:01.465Z,29.75
2018-07-21T11:46:30.276Z,29.69
2018-07-21T11:48:59.852Z,29.75
2018-07-21T11:51:27.926Z,29.83
2018-07-21T11:53:56.088Z,29.77
2018-07-21T11:56:24.287Z,29.60
2018-07-21T11:58:52.345Z,29.70
2018-07-21T12:01:20.824Z,29.78
2018-07-21T12:03:49.331Z,29.68
2018-07-21T12:06:17.871Z,29.60
2018-07-21T12:08:45.896Z,29.59
2018-07-21T12:11:14.663Z,29.88
2018-07-21T12:13:43.237Z,29.99
2018-07-21T12:16:11.657Z,29.84
2018-07-21T12:18:39.700Z,29.82
2018-07-21T12:21:07.718Z,29.86
2018-07-21T12:23:35.884Z,29.94
2018-07-21T12:26:04.016Z,29.98
2018-07-21T12:28:32.228Z,29.90
2018-07-21T12:31:00.317Z,29.96
2018-07-21T12:33:28.324Z,30.03
2018-07-21T12:35:56.370Z,30.11
2018-07-21T12:38:24.688Z,30.15
2018-07-21T12:40:52.838Z,30.30
2018-07-21T12:43:20.807Z,30.28
2018-07-21T12:45:49.512Z,30.09
2018-07-21T12:48:17.718Z,30.13
2018-07-21T12:50:46.098Z,30.09
2018-07-21T12:53:14.112Z,30.32
2018-07-21T12:55:42.306Z,31.08
2018-07-21T12:58:10.703Z,31.67
2018-07-21T13:00:38.718Z,32.02
2018-07-21T13:03:06.992Z,31.96
2018-07-21T13:05:35.098Z,31.93
2018-07-21T13:08:03.163Z,31.94
2018-07-21T13:10:31.511Z,31.99
2018-07-21T13:12:59.521Z,31.83
2018-07-21T13:15:27.642Z,31.91
2018-07-21T13:17:56.380Z,32.13
2018-07-21T13:20:24.370Z,32.01
2018-07-21T13:22:52.518Z,31.96
2018-07-21T13:25:21.906Z,31.78
2018-07-21T13:27:49.959Z,31.77
2018-07-21T13:30:17.991Z,32.02
2018-07-21T13:32:46.818Z,32.37
2018-07-21T13:35:15.030Z,32.01
2018-07-21T13:37:43.325Z,32.19
2018-07-21T13:40:12.663Z,32.09
2018-07-21T13:42:42.421Z,32.20
2018-07-21T13:45:10.563Z,31.96
2018-07-21T13:47:38.962Z,32.21
2018-07-21T13:50:07.013Z,32.07
2018-07-21T13:52:35.800Z,31.87
2018-07-21T13:55:04.123Z,31.87
2018-07-21T13:57:32.474Z,32.18
2018-07-21T14:00:00.777Z,32.38
2018-07-21T14:02:28.787Z,32.67
2018-07-21T14:04:56.871Z,32.71
2018-07-21T14:07:24.891Z,32.47
2018-07-21T14:09:53.564Z,32.30
2018-07-21T14:12:22.291Z,32.04
2018-07-21T14:14:50.346Z,32.24
2018-07-21T14:17:19.556Z,32.05
2018-07-21T14:19:47.543Z,32.18
2018-07-21T14:22:15.995Z,31.95
2018-07-21T14:24:44.136Z,31.95
2018-07-21T14:27:12.211Z,31.79
2018-07-21T14:29:40.406Z,31.69
2018-07-21T14:32:08.361Z,31.69
2018-07-21T14:34:36.537Z,31.97
2018-07-21T14:37:05.019Z,32.00
2018-07-21T14:39:33.169Z,32.10
2018-07-21T14:42:01.247Z,32.08
2018-07-21T14:44:29.372Z,31.75
2018-07-21T14:46:57.368Z,31.98
2018-07-21T14:49:25.384Z,31.96
2018-07-21T14:51:53.570Z,31.95
2018-07-21T14:54:21.812Z,31.97
2018-07-21T14:56:49.899Z,31.85
2018-07-21T14:59:17.928Z,31.68
2018-07-21T15:01:46.401Z,31.77
2018-07-21T15:04:14.399Z,31.77
2018-07-21T15:06:42.569Z,31.65
2018-07-21T15:09:11.784Z,31.70
2018-07-21T15:11:40.017Z,31.35
2018-07-21T15:14:08.292Z,31.44
2018-07-21T15:16:38.391Z,31.34
2018-07-21T15:19:07.415Z,31.31
2018-07-21T15:21:35.543Z,31.18
2018-07-21T15:24:04.207Z,31.20
2018-07-21T15:26:33.943Z,31.31
2018-07-21T15:29:02.254Z,31.27
2018-07-21T15:31:31.073Z,31.32
2018-07-21T15:33:59.333Z,31.51
2018-07-21T15:36:27.353Z,31.63
2018-07-21T15:38:56.063Z,31.65
2018-07-21T15:41:24.163Z,31.59
2018-07-21T15:43:52.866Z,31.46
2018-07-21T15:46:21.139Z,31.55
2018-07-21T15:48:49.973Z,31.58
2018-07-21T15:51:18.093Z,31.49
2018-07-21T15:53:46.416Z,31.46
2018-07-21T15:56:15.549Z,31.45
2018-07-21T15:58:43.666Z,31.22
2018-07-21T16:01:13.247Z,31.30
2018-07-21T16:03:41.391Z,31.07
2018-07-21T16:06:09.603Z,30.89
2018-07-21T16:08:38.519Z,30.95
2018-07-21T16:11:07.448Z,31.10
2018-07-21T16:13:36.421Z,31.19
2018-07-21T16:16:04.951Z,31.14
2018-07-21T16:18:34.224Z,31.13
2018-07-21T16:21:03.563Z,31.12
2018-07-21T16:23:31.735Z,30.96
2018-07-21T16:25:59.994Z,31.11
2018-07-21T16:28:28.153Z,31.22
2018-07-21T16:30:56.206Z,31.39
2018-07-21T16:33:24.439Z,31.36
2018-07-21T16:35:52.921Z,30.89
2018-07-21T16:38:21.058Z,30.88
2018-07-21T16:40:49.255Z,30.83
2018-07-21T16:43:18.121Z,30.38
2018-07-21T16:45:46.216Z,29.98
2018-07-21T16:48:17.814Z,29.52
2018-07-21T16:50:46.422Z,29.12
2018-07-21T16:53:14.750Z,29.03
2018-07-21T16:55:42.851Z,28.86
2018-07-21T16:58:11.389Z,28.69
2018-07-21T17:00:39.941Z,28.66
2018-07-21T17:03:08.193Z,28.48
2018-07-21T17:05:36.287Z,28.37
2018-07-21T17:08:04.605Z,28.30
2018-07-21T17:10:33.304Z,28.21
2018-07-21T17:13:01.279Z,28.12
2018-07-21T17:15:29.380Z,27.99
2018-07-21T17:17:57.355Z,27.96
2018-07-21T17:20:25.532Z,27.86
2018-07-21T17:22:53.506Z,27.96
2018-07-21T17:25:21.567Z,27.87
2018-07-21T17:27:49.664Z,27.80
2018-07-21T17:30:17.632Z,27.77
2018-07-21T17:32:45.709Z,27.63
2018-07-21T17:35:14.931Z,27.64
2018-07-21T17:37:42.974Z,27.52
2018-07-21T17:40:10.995Z,27.36
2018-07-21T17:42:39.109Z,27.27
2018-07-21T17:45:07.477Z,27.24
2018-07-21T17:47:35.679Z,27.12
2018-07-21T17:50:03.798Z,27.08
2018-07-21T17:52:32.383Z,27.05
2018-07-21T17:55:00.466Z,26.86
2018-07-21T17:57:28.426Z,26.72
2018-07-21T17:59:56.443Z,26.58
2018-07-21T18:02:24.516Z,26.35
2018-07-21T18:04:52.521Z,26.25
2018-07-21T18:07:20.652Z,26.12
2018-07-21T18:09:48.712Z,26.07
2018-07-21T18:12:16.778Z,25.93
2018-07-21T18:14:44.768Z,25.73
2018-07-21T18:17:12.765Z,25.70
2018-07-21T18:19:40.703Z,25.55
2018-07-21T18:22:08.774Z,25.41
2018-07-21T18:24:36.820Z,25.32
2018-07-21T18:27:04.867Z,25.29
2018-07-21T18:29:32.958Z,25.01
2018-07-21T18:32:00.986Z,24.95
2018-07-21T18:34:29.009Z,24.83
2018-07-21T18:36:58.230Z,24.74
2018-07-21T18:39:26.261Z,24.62
2018-07-21T18:41:54.278Z,24.56
2018-07-21T18:44:22.263Z,24.45
2018-07-21T18:46:50.288Z,24.41
2018-07-21T18:49:18.742Z,24.38
2018-07-21T18:51:46.875Z,24.29
2018-07-21T18:54:14.929Z,24.24
2018-07-21T18:56:44.058Z,24.20
2018-07-21T18:59:12.167Z,24.07
2018-07-21T19:01:40.252Z,23.98
2018-07-21T19:04:08.221Z,23.93
2018-07-21T19:06:36.299Z,23.84
2018-07-21T19:09:07.369Z,23.86
2018-07-21T19:11:35.328Z,23.83
2018-07-21T19:14:03.577Z,23.96
2018-07-21T19:16:40.121Z,24.00
2018-07-21T19:19:08.285Z,23.90
2018-07-21T19:21:36.313Z,23.97
2018-07-21T19:24:04.550Z,23.85
2018-07-21T19:26:38.122Z,23.78
2018-07-21T19:29:06.194Z,23.76
2018-07-21T19:31:34.089Z,23.77
2018-07-21T19:34:02.202Z,23.67
2018-07-21T19:36:30.175Z,23.70
2018-07-21T19:38:58.276Z,23.66
2018-07-21T19:41:31.604Z,23.62
2018-07-21T19:43:59.661Z,23.61
2018-07-21T19:46:27.679Z,23.58
2018-07-21T19:48:55.681Z,23.64
2018-07-21T19:51:23.692Z,23.69
2018-07-21T19:53:51.786Z,23.70
2018-07-21T19:56:19.827Z,23.46
2018-07-21T19:58:47.790Z,23.32
2018-07-21T20:01:15.832Z,23.44
2018-07-21T20:03:43.899Z,23.53
2018-07-21T20:06:11.923Z,23.56
2018-07-21T20:08:40.092Z,23.47
2018-07-21T20:11:08.301Z,23.43
2018-07-21T20:13:36.251Z,23.41
2018-07-21T20:16:04.296Z,23.45
2018-07-21T20:18:32.232Z,23.48
2018-07-21T20:21:00.470Z,23.42
2018-07-21T20:23:28.364Z,23.39
2018-07-21T20:25:56.411Z,23.39
2018-07-21T20:28:24.376Z,23.37
2018-07-21T20:30:52.650Z,23.38
2018-07-21T20:33:20.740Z,23.34
2018-07-21T20:35:48.722Z,23.34
2018-07-21T20:38:16.826Z,23.36
2018-07-21T20:40:44.929Z,23.35
2018-07-21T20:43:13.031Z,23.30
2018-07-21T20:45:41.099Z,23.14
2018-07-21T20:48:09.426Z,23.12
2018-07-21T20:50:37.392Z,23.09
2018-07-21T20:53:05.562Z,23.07
2018-07-21T20:55:33.588Z,23.04
2018-07-21T20:58:02.243Z,22.98
2018-07-21T21:00:31.297Z,22.89
2018-07-21T21:02:59.520Z,22.84
2018-07-21T21:05:27.601Z,22.80
2018-07-21T21:07:55.758Z,22.78
2018-07-21T21:10:23.935Z,22.74
2018-07-21T21:12:52.635Z,22.81
2018-07-21T21:15:21.175Z,22.76
2018-07-21T21:17:49.509Z,22.81
2018-07-21T21:20:18.231Z,22.88
2018-07-21T21:22:48.268Z,22.72
2018-07-21T21:25:17.392Z,22.62
2018-07-21T21:27:46.552Z,22.50
2018-07-21T21:30:15.716Z,22.50
2018-07-21T21:32:44.527Z,22.49
2018-07-21T21:35:13.888Z,22.39
2018-07-21T21:37:42.674Z,22.35
2018-07-21T21:40:11.498Z,22.32
2018-07-21T21:42:39.635Z,22.32
2018-07-21T21:45:07.594Z,22.29
2018-07-21T21:47:35.606Z,22.21
2018-07-21T21:50:03.837Z,22.17
2018-07-21T21:52:32.007Z,22.03
2018-07-21T21:55:00.075Z,22.01
2018-07-21T21:57:28.187Z,21.91
2018-07-21T21:59:56.250Z,21.83
2018-07-21T22:02:24.294Z,21.73
2018-07-21T22:04:52.397Z,21.67
2018-07-21T22:07:20.467Z,21.52
2018-07-21T22:09:48.475Z,21.53
2018-07-21T22:12:16.373Z,21.62
2018-07-21T22:14:44.732Z,21.60
2018-07-21T22:17:13.738Z,21.51
2018-07-21T22:19:41.772Z,21.57
2018-07-21T22:22:09.814Z,21.57
2018-07-21T22:24:37.962Z,21.60
2018-07-21T22:27:06.179Z,21.60
2018-07-21T22:29:34.156Z,21.57
2018-07-21T22:32:02.208Z,21.55
2018-07-21T22:34:30.298Z,21.48
2018-07-21T22:36:58.390Z,21.43
2018-07-21T22:39:26.634Z,21.36
2018-07-21T22:41:54.686Z,21.33
2018-07-21T22:44:22.674Z,21.29
2018-07-21T22:46:50.692Z,21.34
2018-07-21T22:49:18.708Z,21.38
2018-07-21T22:51:46.686Z,21.40
2018-07-21T22:54:14.642Z,21.37
2018-07-21T22:56:42.672Z,21.21
2018-07-21T22:59:10.725Z,21.14
2018-07-21T23:01:39.256Z,21.14
2018-07-21T23:04:07.399Z,21.24
2018-07-21T23:06:35.361Z,21.09
2018-07-21T23:09:03.901Z,21.04
2018-07-21T23:11:32.031Z,21.05
2018-07-21T23:14:00.043Z,21.07
2018-07-21T23:16:28.015Z,21.04
2018-07-21T23:18:56.036Z,20.85
2018-07-21T23:21:24.032Z,20.82
2018-07-21T23:23:52.170Z,20.78
2018-07-21T23:26:20.208Z,20.75
2018-07-21T23:28:48.304Z,20.86
2018-07-21T23:31:16.290Z,21.09
2018-07-21T23:33:44.228Z,21.03
2018-07-21T23:36:12.199Z,20.93
2018-07-21T23:38:40.147Z,20.75
2018-07-21T23:41:08.163Z,20.61
2018-07-21T23:43:36.196Z,20.54
2018-07-21T23:46:04.317Z,20.55
2018-07-21T23:48:32.286Z,20.70
2018-07-21T23:51:00.299Z,20.73
2018-07-21T23:53:28.379Z,20.74
2018-07-21T23:55:56.600Z,20.57
2018-07-21T23:58:24.628Z,20.51
